createdAt,value
2018-04-29T00:01:45.408Z,95.40
2018-04-29T00:04:13.664Z,94.90
2018-04-29T00:06:41.908Z,94.80
2018-04-29T00:09:10.926Z,95.20
2018-04-29T00:11:39.169Z,95.20
2018-04-29T00:14:08.209Z,95.30
2018-04-29T00:16:36.456Z,95.30
2018-04-29T00:19:05.579Z,95.40
2018-04-29T00:21:33.833Z,95.40
2018-04-29T00:24:02.856Z,95.30
2018-04-29T00:26:31.127Z,95.30
2018-04-29T00:28:59.368Z,95.20
2018-04-29T00:31:27.636Z,95.30
2018-04-29T00:33:55.868Z,95.50
2018-04-29T00:36:24.125Z,95.70
2018-04-29T00:38:52.367Z,95.90
2018-04-29T00:41:20.719Z,96.20
2018-04-29T00:43:48.977Z,96.30
2018-04-29T00:46:17.280Z,96.50
2018-04-29T00:48:45.574Z,96.50
2018-04-29T00:51:14.560Z,97.10
2018-04-29T00:53:42.789Z,97.10
2018-04-29T00:56:11.812Z,97.70
2018-04-29T00:58:40.092Z,97.70
2018-04-29T01:01:08.349Z,97.70
2018-04-29T01:03:37.372Z,98.00
2018-04-29T01:06:05.663Z,97.90
2018-04-29T01:08:33.898Z,98.20
2018-04-29T01:11:03.033Z,98.40
2018-04-29T01:13:31.273Z,98.40
2018-04-29T01:16:00.314Z,98.30
2018-04-29T01:18:28.558Z,98.30
2018-04-29T01:20:57.579Z,98.60
2018-04-29T01:23:25.828Z,98.60
2018-04-29T01:25:54.849Z,98.80
2018-04-29T01:28:23.098Z,98.80
2018-04-29T01:30:52.131Z,99.10
2018-04-29T01:33:20.382Z,99.10
2018-04-29T01:35:49.401Z,99.20
2018-04-29T01:38:17.645Z,99.10
2018-04-29T01:40:46.677Z,99.30
2018-04-29T01:43:14.926Z,99.30
2018-04-29T01:45:43.941Z,99.30
2018-04-29T01:48:12.183Z,99.30
2018-04-29T01:50:40.480Z,99.40
2018-04-29T01:53:09.512Z,99.30
2018-04-29T01:55:37.767Z,99.30
2018-04-29T01:58:06.768Z,99.30
2018-04-29T02:00:35.036Z,99.30
2018-04-29T02:03:04.031Z,99.40
2018-04-29T02:05:33.048Z,99.20
2018-04-29T02:08:01.290Z,99.20
2018-04-29T02:10:29.630Z,99.10
2018-04-29T02:12:57.856Z,99.00
2018-04-29T02:15:26.887Z,99.00
2018-04-29T02:17:55.183Z,99.00
2018-04-29T02:20:23.456Z,98.90
2018-04-29T02:22:51.697Z,98.90
2018-04-29T02:25:20.720Z,99.10
2018-04-29T02:27:48.970Z,99.10
2018-04-29T02:30:17.986Z,99.40
2018-04-29T02:32:46.292Z,99.40
2018-04-29T02:35:14.569Z,99.70
2018-04-29T02:37:42.836Z,99.90
2018-04-29T02:40:11.097Z,99.90
2018-04-29T02:42:39.361Z,99.90
2018-04-29T02:45:08.396Z,99.90
2018-04-29T02:47:36.674Z,99.90
2018-04-29T02:50:04.931Z,99.90
2018-04-29T02:52:33.937Z,99.90
2018-04-29T02:55:02.237Z,99.90
2018-04-29T02:57:31.338Z,99.90
2018-04-29T02:59:59.614Z,99.90
2018-04-29T03:02:27.895Z,99.90
2018-04-29T03:04:56.150Z,99.90
2018-04-29T03:07:24.454Z,99.90
2018-04-29T03:09:52.726Z,99.90
2018-04-29T03:12:20.962Z,99.90
2018-04-29T03:14:49.985Z,99.90
2018-04-29T03:17:18.293Z,99.90
2018-04-29T03:19:46.551Z,99.90
2018-04-29T03:22:14.941Z,99.90
2018-04-29T03:24:43.180Z,99.90
2018-04-29T03:27:11.472Z,99.90
2018-04-29T03:29:39.716Z,99.90
2018-04-29T03:32:08.745Z,99.90
2018-04-29T03:34:36.983Z,99.90
2018-04-29T03:37:05.234Z,99.90
2018-04-29T03:39:33.512Z,99.90
2018-04-29T03:42:01.780Z,99.90
2018-04-29T03:44:30.027Z,99.90
2018-04-29T03:46:59.078Z,99.90
2018-04-29T03:49:27.308Z,99.90
2018-04-29T03:51:57.106Z,99.90
2018-04-29T03:54:25.339Z,99.90
2018-04-29T03:56:53.615Z,99.90
2018-04-29T03:59:33.880Z,99.90
2018-04-29T04:02:14.028Z,99.90
2018-04-29T04:04:42.322Z,99.90
2018-04-29T04:07:10.617Z,99.90
2018-04-29T04:09:38.933Z,99.90
2018-04-29T04:12:07.152Z,99.90
2018-04-29T04:14:35.387Z,99.90
2018-04-29T04:17:03.640Z,99.90
2018-04-29T04:19:31.886Z,99.90
2018-04-29T04:22:00.182Z,99.90
2018-04-29T04:24:28.418Z,99.90
2018-04-29T04:26:57.438Z,99.90
2018-04-29T04:29:25.683Z,99.90
2018-04-29T04:31:54.820Z,99.90
2018-04-29T04:34:23.062Z,99.90
2018-04-29T04:36:52.152Z,99.90
2018-04-29T04:39:20.490Z,99.90
2018-04-29T04:41:48.748Z,99.90
2018-04-29T04:44:17.045Z,99.90
2018-04-29T04:46:45.432Z,99.90
2018-04-29T04:49:13.672Z,99.90
2018-04-29T04:51:43.103Z,99.90
2018-04-29T04:54:11.341Z,99.90
2018-04-29T04:56:40.365Z,99.90
2018-04-29T04:59:08.611Z,99.90
2018-04-29T05:01:37.459Z,99.90
2018-04-29T05:04:05.702Z,99.90
2018-04-29T05:06:34.725Z,99.90
2018-04-29T05:09:02.969Z,99.90
2018-04-29T05:11:32.004Z,99.90
2018-04-29T05:14:00.249Z,99.90
2018-04-29T05:16:29.273Z,99.90
2018-04-29T05:18:57.511Z,99.90
2018-04-29T05:21:25.767Z,99.90
2018-04-29T05:23:54.006Z,99.90
2018-04-29T05:26:22.255Z,99.60
2018-04-29T05:28:51.264Z,99.00
2018-04-29T05:31:20.839Z,98.20
2018-04-29T05:33:49.888Z,97.50
2018-04-29T05:36:18.181Z,97.50
2018-04-29T05:38:47.081Z,96.70
2018-04-29T05:41:15.343Z,96.20
2018-04-29T05:43:43.640Z,95.60
2018-04-29T05:46:11.894Z,95.10
2018-04-29T05:48:40.195Z,95.00
2018-04-29T05:51:08.460Z,94.70
2018-04-29T05:53:36.762Z,94.20
2018-04-29T05:56:05.033Z,94.00
2018-04-29T05:58:34.040Z,93.80
2018-04-29T06:01:02.274Z,93.70
2018-04-29T06:03:31.595Z,94.20
2018-04-29T06:06:00.069Z,93.90
2018-04-29T06:08:29.074Z,93.70
2018-04-29T06:10:58.093Z,94.50
2018-04-29T06:13:26.386Z,94.50
2018-04-29T06:15:54.673Z,95.10
2018-04-29T06:18:22.932Z,95.70
2018-04-29T06:20:51.192Z,96.70
2018-04-29T06:23:19.441Z,97.40
2018-04-29T06:25:47.693Z,99.10
2018-04-29T06:28:15.927Z,99.90
2018-04-29T06:30:44.212Z,99.90
2018-04-29T06:33:13.197Z,99.90
2018-04-29T06:35:41.440Z,99.90
2018-04-29T06:38:09.788Z,99.90
2018-04-29T06:40:38.056Z,99.90
2018-04-29T06:43:06.354Z,99.90
2018-04-29T06:45:34.606Z,99.90
2018-04-29T06:48:02.913Z,99.90
2018-04-29T06:50:31.163Z,99.90
2018-04-29T06:52:59.463Z,99.90
2018-04-29T06:55:27.778Z,99.90
2018-04-29T06:57:56.004Z,99.90
2018-04-29T07:00:24.399Z,99.90
2018-04-29T07:02:52.669Z,99.90
2018-04-29T07:05:20.925Z,99.90
2018-04-29T07:07:49.985Z,99.90
2018-04-29T07:10:18.235Z,99.90
2018-04-29T07:12:46.559Z,99.90
2018-04-29T07:15:14.912Z,99.90
2018-04-29T07:17:43.173Z,99.90
2018-04-29T07:20:11.434Z,99.20
2018-04-29T07:22:39.668Z,98.00
2018-04-29T07:25:08.247Z,95.60
2018-04-29T07:27:36.488Z,93.70
2018-04-29T07:30:05.504Z,89.40
2018-04-29T07:32:33.771Z,89.20
2018-04-29T07:35:02.017Z,87.90
2018-04-29T07:37:31.046Z,84.80
2018-04-29T07:39:59.449Z,84.70
2018-04-29T07:42:27.708Z,85.90
2018-04-29T07:44:55.957Z,88.50
2018-04-29T07:47:24.989Z,90.60
2018-04-29T07:49:53.237Z,90.60
2018-04-29T07:52:22.295Z,91.70
2018-04-29T07:54:50.514Z,91.60
2018-04-29T07:57:19.654Z,92.30
2018-04-29T07:59:47.972Z,92.30
2018-04-29T08:02:16.224Z,92.30
2018-04-29T08:04:44.453Z,92.70
2018-04-29T08:07:13.582Z,93.30
2018-04-29T08:09:41.835Z,93.30
2018-04-29T08:12:10.857Z,94.10
2018-04-29T08:14:39.101Z,94.10
2018-04-29T08:17:08.133Z,95.60
2018-04-29T08:19:36.424Z,95.60
2018-04-29T08:22:04.732Z,95.90
2018-04-29T08:24:32.968Z,96.60
2018-04-29T08:27:01.225Z,95.70
2018-04-29T08:29:30.824Z,92.30
2018-04-29T08:31:59.846Z,91.80
2018-04-29T08:34:28.873Z,92.50
2018-04-29T08:36:57.177Z,92.50
2018-04-29T08:39:25.397Z,92.70
2018-04-29T08:41:53.717Z,93.10
2018-04-29T08:44:22.675Z,93.90
2018-04-29T08:46:50.953Z,93.90
2018-04-29T08:49:19.982Z,94.90
2018-04-29T08:51:48.239Z,94.90
2018-04-29T08:54:16.549Z,95.50
2018-04-29T08:56:44.828Z,96.00
2018-04-29T08:59:13.060Z,95.90
2018-04-29T09:01:42.185Z,95.70
2018-04-29T09:04:10.370Z,95.70
2018-04-29T09:06:38.629Z,96.50
2018-04-29T09:09:06.925Z,96.70
2018-04-29T09:11:35.185Z,96.80
2018-04-29T09:14:03.422Z,97.60
2018-04-29T09:16:32.447Z,97.60
2018-04-29T09:19:01.476Z,97.10
2018-04-29T09:21:29.752Z,97.10
2018-04-29T09:23:58.044Z,96.30
2018-04-29T09:26:26.292Z,95.90
2018-04-29T09:28:55.326Z,95.40
2018-04-29T09:31:23.557Z,95.30
2018-04-29T09:33:52.580Z,95.00
2018-04-29T09:36:20.820Z,94.90
2018-04-29T09:38:49.077Z,94.40
2018-04-29T09:41:17.312Z,94.80
2018-04-29T09:43:45.707Z,94.10
2018-04-29T09:46:14.641Z,93.70
2018-04-29T09:48:42.960Z,93.80
2018-04-29T09:51:11.407Z,93.90
2018-04-29T09:53:40.535Z,94.70
2018-04-29T09:56:09.706Z,95.30
2018-04-29T09:58:38.768Z,95.80
2018-04-29T10:01:12.776Z,95.80
2018-04-29T10:03:40.971Z,96.30
2018-04-29T10:06:09.211Z,96.40
2018-04-29T10:08:37.472Z,96.80
2018-04-29T10:11:06.468Z,96.40
2018-04-29T10:13:35.499Z,95.70
2018-04-29T10:16:03.738Z,95.70
2018-04-29T10:18:32.785Z,92.30
2018-04-29T10:21:01.046Z,92.30
2018-04-29T10:23:29.345Z,88.80
2018-04-29T10:25:57.588Z,82.40
2018-04-29T10:28:26.725Z,72.90
2018-04-29T10:30:54.994Z,72.80
2018-04-29T10:33:23.276Z,68.90
2018-04-29T10:35:51.527Z,64.70
2018-04-29T10:38:19.800Z,62.10
2018-04-29T10:40:48.821Z,55.80
2018-04-29T10:43:17.089Z,55.70
2018-04-29T10:45:45.368Z,55.50
2018-04-29T10:48:13.632Z,55.00
2018-04-29T10:50:42.674Z,52.80
2018-04-29T10:53:10.945Z,52.80
2018-04-29T10:55:39.186Z,52.10
2018-04-29T10:58:08.944Z,51.70
2018-04-29T11:00:37.223Z,51.10
2018-04-29T11:03:05.481Z,50.60
2018-04-29T11:05:33.725Z,49.90
2018-04-29T11:08:01.983Z,49.60
2018-04-29T11:10:30.236Z,49.20
2018-04-29T11:12:58.527Z,49.50
2018-04-29T11:15:26.775Z,49.30
2018-04-29T11:17:55.035Z,50.10
2018-04-29T11:20:24.046Z,50.00
2018-04-29T11:22:52.315Z,49.90
2018-04-29T11:25:21.341Z,49.40
2018-04-29T11:27:49.628Z,49.40
2018-04-29T11:30:17.918Z,48.80
2018-04-29T11:32:46.181Z,49.10
2018-04-29T11:35:14.453Z,49.20
2018-04-29T11:37:42.719Z,48.60
2018-04-29T11:40:11.055Z,47.80
2018-04-29T11:42:39.294Z,47.60
2018-04-29T11:45:07.561Z,47.90
2018-04-29T11:47:36.564Z,48.40
2018-04-29T11:50:04.805Z,48.30
2018-04-29T11:52:33.848Z,47.60
2018-04-29T11:55:02.084Z,47.60
2018-04-29T11:57:31.104Z,47.50
2018-04-29T11:59:59.415Z,47.50
2018-04-29T12:02:27.825Z,47.10
2018-04-29T12:04:55.971Z,46.20
2018-04-29T12:07:24.366Z,46.40
2018-04-29T12:09:52.705Z,45.80
2018-04-29T12:12:21.669Z,46.30
2018-04-29T12:14:49.886Z,46.30
2018-04-29T12:17:18.157Z,45.80
2018-04-29T12:19:47.164Z,46.50
2018-04-29T12:22:15.450Z,46.50
2018-04-29T12:24:43.688Z,46.70
2018-04-29T12:27:12.026Z,47.20
2018-04-29T12:29:41.123Z,47.60
2018-04-29T12:32:09.373Z,47.60
2018-04-29T12:34:38.431Z,48.90
2018-04-29T12:37:06.707Z,48.90
2018-04-29T12:39:34.970Z,48.80
2018-04-29T12:42:03.204Z,49.40
2018-04-29T12:44:32.229Z,50.40
2018-04-29T12:47:00.466Z,50.40
2018-04-29T12:49:29.500Z,50.70
2018-04-29T12:51:57.729Z,50.70
2018-04-29T12:54:25.984Z,51.10
2018-04-29T12:56:54.229Z,51.70
2018-04-29T12:59:22.491Z,53.00
2018-04-29T13:01:51.673Z,55.90
2018-04-29T13:04:19.923Z,55.90
2018-04-29T13:06:48.165Z,56.60
2018-04-29T13:09:16.430Z,56.90
2018-04-29T13:11:45.448Z,56.40
2018-04-29T13:14:13.748Z,56.30
2018-04-29T13:16:43.527Z,54.30
2018-04-29T13:19:12.554Z,54.10
2018-04-29T13:21:40.876Z,54.00
2018-04-29T13:24:09.113Z,53.70
2018-04-29T13:26:37.363Z,53.70
2018-04-29T13:29:06.366Z,55.10
2018-04-29T13:31:34.622Z,55.10
2018-04-29T13:34:02.892Z,56.30
2018-04-29T13:36:31.127Z,57.20
2018-04-29T13:38:59.450Z,58.70
2018-04-29T13:41:27.693Z,60.40
2018-04-29T13:43:55.940Z,61.80
2018-04-29T13:46:24.953Z,63.50
2018-04-29T13:48:53.208Z,63.50
2018-04-29T13:51:22.252Z,65.60
2018-04-29T13:53:50.510Z,65.50
2018-04-29T13:56:18.775Z,66.70
2018-04-29T13:58:47.935Z,68.90
2018-04-29T14:01:16.037Z,68.90
2018-04-29T14:03:45.151Z,71.20
2018-04-29T14:06:14.198Z,71.40
2018-04-29T14:08:42.456Z,71.40
2018-04-29T14:11:10.732Z,72.60
2018-04-29T14:13:38.985Z,73.00
2018-04-29T14:16:07.349Z,74.30
2018-04-29T14:18:35.549Z,73.90
2018-04-29T14:21:03.813Z,74.30
2018-04-29T14:23:32.848Z,75.40
2018-04-29T14:26:01.096Z,75.40
2018-04-29T14:28:30.112Z,75.90
2018-04-29T14:30:58.394Z,75.90
2018-04-29T14:33:26.668Z,75.40
2018-04-29T14:35:54.902Z,76.10
2018-04-29T14:38:23.233Z,76.80
2018-04-29T14:40:51.483Z,77.00
2018-04-29T14:43:19.771Z,77.20
2018-04-29T14:45:48.017Z,76.60
2018-04-29T14:48:16.272Z,77.20
2018-04-29T14:50:44.534Z,78.50
2018-04-29T14:53:12.815Z,79.60
2018-04-29T14:55:41.052Z,78.70
2018-04-29T14:58:10.073Z,78.90
2018-04-29T15:00:38.532Z,78.80
2018-04-29T15:03:06.849Z,77.80
2018-04-29T15:05:35.099Z,78.70
2018-04-29T15:08:04.119Z,78.30
2018-04-29T15:10:32.455Z,78.30
2018-04-29T15:13:00.673Z,78.70
2018-04-29T15:15:29.070Z,78.80
2018-04-29T15:17:57.359Z,77.90
2018-04-29T15:20:25.604Z,77.30
2018-04-29T15:22:54.635Z,78.10
2018-04-29T15:25:22.877Z,78.20
2018-04-29T15:27:51.129Z,79.30
2018-04-29T15:30:20.889Z,79.30
2018-04-29T15:32:49.196Z,79.30
2018-04-29T15:35:17.460Z,78.60
2018-04-29T15:37:45.752Z,78.70
2018-04-29T15:40:14.025Z,77.20
2018-04-29T15:42:42.296Z,77.90
2018-04-29T15:45:10.723Z,77.40
2018-04-29T15:47:40.642Z,74.20
2018-04-29T15:50:08.912Z,74.20
2018-04-29T15:52:37.197Z,72.80
2018-04-29T15:55:05.444Z,72.60
2018-04-29T15:57:33.741Z,71.70
2018-04-29T16:00:02.013Z,70.80
2018-04-29T16:02:30.253Z,71.80
2018-04-29T16:04:58.523Z,72.10
2018-04-29T16:07:27.529Z,71.20
2018-04-29T16:09:55.851Z,71.20
2018-04-29T16:12:24.081Z,71.80
2018-04-29T16:14:53.106Z,72.20
2018-04-29T16:17:22.112Z,72.60
2018-04-29T16:19:50.373Z,72.60
2018-04-29T16:22:18.678Z,73.00
2018-04-29T16:24:46.992Z,73.30
2018-04-29T16:27:15.341Z,72.90
2018-04-29T16:29:43.601Z,72.30
2018-04-29T16:32:11.889Z,72.30
2018-04-29T16:34:40.169Z,73.00
2018-04-29T16:37:08.420Z,73.10
2018-04-29T16:39:37.430Z,73.10
2018-04-29T16:42:05.728Z,73.10
2018-04-29T16:44:34.014Z,73.50
2018-04-29T16:47:02.261Z,73.80
2018-04-29T16:49:30.520Z,73.40
2018-04-29T16:51:59.559Z,73.00
2018-04-29T16:54:27.819Z,73.00
2018-04-29T16:56:56.739Z,73.60
2018-04-29T16:59:25.300Z,74.40
2018-04-29T17:01:53.538Z,74.90
2018-04-29T17:04:21.801Z,74.80
2018-04-29T17:06:50.064Z,75.20
2018-04-29T17:09:18.324Z,75.70
2018-04-29T17:11:46.712Z,75.70
2018-04-29T17:14:15.215Z,74.80
2018-04-29T17:16:43.574Z,74.40
2018-04-29T17:19:12.859Z,74.40
2018-04-29T17:21:41.187Z,74.40
2018-04-29T17:24:09.459Z,75.00
2018-04-29T17:26:37.902Z,75.40
2018-04-29T17:29:06.236Z,75.10
2018-04-29T17:31:34.475Z,75.50
2018-04-29T17:34:03.571Z,76.10
2018-04-29T17:36:31.814Z,76.00
2018-04-29T17:39:01.891Z,76.70
2018-04-29T17:41:30.227Z,76.70
2018-04-29T17:43:58.545Z,76.60
2018-04-29T17:46:28.717Z,77.30
2018-04-29T17:48:57.044Z,77.60
2018-04-29T17:51:25.321Z,78.20
2018-04-29T17:53:53.588Z,78.30
2018-04-29T17:56:21.867Z,78.70
2018-04-29T17:58:50.146Z,78.90
2018-04-29T18:01:18.470Z,78.90
2018-04-29T18:03:46.658Z,79.30
2018-04-29T18:06:16.722Z,79.40
2018-04-29T18:08:45.002Z,79.30
2018-04-29T18:11:13.258Z,79.20
2018-04-29T18:13:41.546Z,79.70
2018-04-29T18:16:09.825Z,80.20
2018-04-29T18:18:38.100Z,80.40
2018-04-29T18:21:06.441Z,81.00
2018-04-29T18:23:34.620Z,82.00
2018-04-29T18:26:03.758Z,82.30
2018-04-29T18:28:32.047Z,82.20
2018-04-29T18:31:00.311Z,82.70
2018-04-29T18:33:28.565Z,83.20
2018-04-29T18:35:57.594Z,84.10
2018-04-29T18:38:25.834Z,84.80
2018-04-29T18:40:54.913Z,85.50
2018-04-29T18:43:23.152Z,85.30
2018-04-29T18:45:51.409Z,85.90
2018-04-29T18:48:19.861Z,86.30
2018-04-29T18:50:48.286Z,86.60
2018-04-29T18:53:16.386Z,87.20
2018-04-29T18:55:44.648Z,87.70
2018-04-29T18:58:13.824Z,87.70
2018-04-29T19:00:42.125Z,88.00
2018-04-29T19:03:10.367Z,88.20
2018-04-29T19:05:44.425Z,88.40
2018-04-29T19:08:12.672Z,88.90
2018-04-29T19:10:41.701Z,88.90
2018-04-29T19:13:09.943Z,88.90
2018-04-29T19:15:38.962Z,89.30
2018-04-29T19:18:07.204Z,89.20
2018-04-29T19:20:35.463Z,89.40
2018-04-29T19:23:03.708Z,89.30
2018-04-29T19:25:31.956Z,89.30
2018-04-29T19:28:00.964Z,89.20
2018-04-29T19:30:29.232Z,89.10
2018-04-29T19:32:58.372Z,89.40
2018-04-29T19:35:26.646Z,89.40
2018-04-29T19:37:54.876Z,89.50
2018-04-29T19:40:23.141Z,89.80
2018-04-29T19:42:51.382Z,90.20
2018-04-29T19:45:19.645Z,90.10
2018-04-29T19:47:47.919Z,90.20
2018-04-29T19:50:17.641Z,90.40
2018-04-29T19:52:45.895Z,90.40
2018-04-29T19:55:14.945Z,90.40
2018-04-29T19:57:43.217Z,90.40
2018-04-29T20:00:11.520Z,90.50
2018-04-29T20:02:39.736Z,90.50
2018-04-29T20:05:07.993Z,90.60
2018-04-29T20:07:37.015Z,90.90
2018-04-29T20:10:06.033Z,91.10
2018-04-29T20:12:34.409Z,91.00
2018-04-29T20:15:02.689Z,91.20
2018-04-29T20:17:30.933Z,91.30
2018-04-29T20:19:59.176Z,91.30
2018-04-29T20:22:27.418Z,91.40
2018-04-29T20:24:55.696Z,91.50
2018-04-29T20:27:23.949Z,91.50
2018-04-29T20:29:53.343Z,92.00
2018-04-29T20:32:48.313Z,91.60
2018-04-29T20:35:16.592Z,91.80
2018-04-29T20:37:44.874Z,92.00
2018-04-29T20:40:13.128Z,92.00
2018-04-29T20:42:41.432Z,92.00
2018-04-29T20:45:09.695Z,92.10
2018-04-29T20:47:37.937Z,92.20
2018-04-29T20:50:06.206Z,92.20
2018-04-29T20:52:34.453Z,92.10
2018-04-29T20:55:02.758Z,92.10
2018-04-29T20:57:31.033Z,92.00
2018-04-29T20:59:59.277Z,92.00
2018-04-29T21:02:27.528Z,91.90
2018-04-29T21:04:56.557Z,91.90
2018-04-29T21:07:24.804Z,91.90
2018-04-29T21:09:53.110Z,91.90
2018-04-29T21:12:21.375Z,92.00
2018-04-29T21:14:49.637Z,92.10
2018-04-29T21:17:18.737Z,92.10
2018-04-29T21:19:46.937Z,92.10
2018-04-29T21:22:15.183Z,92.30
2018-04-29T21:24:44.256Z,92.70
2018-04-29T21:29:42.289Z,92.40
2018-04-29T21:32:10.536Z,92.50
2018-04-29T21:34:38.910Z,92.60
2018-04-29T21:37:07.131Z,92.70
2018-04-29T21:39:35.413Z,92.80
2018-04-29T21:42:03.728Z,92.90
2018-04-29T21:44:32.105Z,93.00
2018-04-29T21:47:00.349Z,93.00
2018-04-29T21:49:28.675Z,93.10
2018-04-29T21:51:57.608Z,93.30
2018-04-29T21:54:26.648Z,93.40
2018-04-29T21:56:54.884Z,93.40
2018-04-29T21:59:23.885Z,93.50
2018-04-29T22:01:52.907Z,93.60
2018-04-29T22:04:21.233Z,93.60
2018-04-29T22:06:50.170Z,94.00
2018-04-29T22:09:18.479Z,93.70
2018-04-29T22:11:46.762Z,93.80
2018-04-29T22:14:15.005Z,93.70
2018-04-29T22:16:43.315Z,93.80
2018-04-29T22:19:11.559Z,93.80
2018-04-29T22:21:39.906Z,93.90
2018-04-29T22:24:08.853Z,93.80
2018-04-29T22:26:37.142Z,93.80
2018-04-29T22:29:05.412Z,93.80
2018-04-29T22:31:33.676Z,93.80
2018-04-29T22:34:01.928Z,93.90
2018-04-29T22:36:31.101Z,94.00
2018-04-29T22:38:59.479Z,93.90
2018-04-29T22:41:27.858Z,93.80
2018-04-29T22:43:56.081Z,93.80
2018-04-29T22:46:25.230Z,93.80
2018-04-29T22:48:53.480Z,93.70
2018-04-29T22:51:22.508Z,93.90
2018-04-29T22:53:50.749Z,93.80
2018-04-29T22:56:19.784Z,93.90
2018-04-29T22:58:48.061Z,93.90
2018-04-29T23:01:16.342Z,94.00
2018-04-29T23:03:44.610Z,93.90
2018-04-29T23:06:12.868Z,93.90
2018-04-29T23:08:41.104Z,94.10
2018-04-29T23:11:09.363Z,93.80
2018-04-29T23:13:37.608Z,93.60
2018-04-29T23:16:05.860Z,93.50
2018-04-29T23:18:34.873Z,93.80
2018-04-29T23:21:03.904Z,93.60
2018-04-29T23:23:32.149Z,93.50
2018-04-29T23:26:01.216Z,93.20
2018-04-29T23:28:29.457Z,93.20
2018-04-29T23:30:57.793Z,93.00
2018-04-29T23:33:26.129Z,93.10
2018-04-29T23:35:54.390Z,93.30
2018-04-29T23:38:22.675Z,93.40
2018-04-29T23:40:50.956Z,93.50
2018-04-29T23:43:19.205Z,93.80
2018-04-29T23:45:48.225Z,93.70
2018-04-29T23:48:16.532Z,93.70
2018-04-29T23:50:44.925Z,93.60
2018-04-29T23:53:13.172Z,93.70
2018-04-29T23:55:41.428Z,93.70
2018-04-29T23:58:09.727Z,93.70
